Fleming, Georgia
Current Conditions -  °F | °C
As of 11:18 PM on Sunday 21 Dec 2014 (Local Time) from KLHW Reporting Station
Light Rain Light Rain  
Wind Chill: 44°   Ceiling: 400
Heat Index: 46°   Visibility: 8mi
Dew Point: 46°   Wind: 5mph
Humidity: 100%   Direction: 50°NE
Pressure: 30.08"   Gusts: NA
Location:  31.88°N, 81.43°W
Report Text: KLHW 220418Z AUTO 05004KT 8SM R33/5500FT -RA OVC004 08/08 A3008 RMK AO2 RAB0414
Loading
Personal Weather Stations






























Interactive Weather Map New forecast layout! Learn more

10-Day Weather Forecast

Advertisements
Track Severe Weather on mobile